sensor_id;sensor_type;location;lat;lon;timestamp;temperature;humidity
13659;DHT22;6902;52.158;11.574;2022-08-03T00:01:02;22.50;99.90
13659;DHT22;6902;52.158;11.574;2022-08-03T00:03:30;22.50;99.90
13659;DHT22;6902;52.158;11.574;2022-08-03T00:05:57;22.50;99.90
13659;DHT22;6902;52.158;11.574;2022-08-03T00:08:24;22.50;99.90
13659;DHT22;6902;52.158;11.574;2022-08-03T00:10:51;22.50;99.90
13659;DHT22;6902;52.158;11.574;2022-08-03T00:13:18;22.50;99.90
13659;DHT22;6902;52.158;11.574;2022-08-03T00:15:46;22.50;99.90
13659;DHT22;6902;52.158;11.574;2022-08-03T00:18:13;22.50;99.90
13659;DHT22;6902;52.158;11.574;2022-08-03T00:20:41;22.40;99.90
13659;DHT22;6902;52.158;11.574;2022-08-03T00:23:08;22.40;99.90
13659;DHT22;6902;52.158;11.574;2022-08-03T00:25:36;22.50;99.90
13659;DHT22;6902;52.158;11.574;2022-08-03T00:28:04;22.40;99.90
13659;DHT22;6902;52.158;11.574;2022-08-03T00:30:32;22.40;99.90
13659;DHT22;6902;52.158;11.574;2022-08-03T00:33:01;22.40;99.90
13659;DHT22;6902;52.158;11.574;2022-08-03T00:35:28;22.40;99.90
13659;DHT22;6902;52.158;11.574;2022-08-03T00:37:55;22.40;99.90
13659;DHT22;6902;52.158;11.574;2022-08-03T00:40:22;22.40;99.90
13659;DHT22;6902;52.158;11.574;2022-08-03T00:42:51;22.30;99.90
13659;DHT22;6902;52.158;11.574;2022-08-03T00:45:20;22.40;99.90
13659;DHT22;6902;52.158;11.574;2022-08-03T00:47:48;22.40;99.90
13659;DHT22;6902;52.158;11.574;2022-08-03T00:50:20;22.30;99.90
13659;DHT22;6902;52.158;11.574;2022-08-03T00:52:48;22.30;99.90
13659;DHT22;6902;52.158;11.574;2022-08-03T00:55:15;22.30;99.90
13659;DHT22;6902;52.158;11.574;2022-08-03T00:57:43;22.30;99.90
13659;DHT22;6902;52.158;11.574;2022-08-03T01:00:12;22.30;99.90
13659;DHT22;6902;52.158;11.574;2022-08-03T01:02:40;22.20;99.90
13659;DHT22;6902;52.158;11.574;2022-08-03T01:05:08;22.20;99.90
13659;DHT22;6902;52.158;11.574;2022-08-03T01:07:54;22.20;99.90
13659;DHT22;6902;52.158;11.574;2022-08-03T01:10:27;22.20;99.90
13659;DHT22;6902;52.158;11.574;2022-08-03T01:13:02;22.10;99.90
13659;DHT22;6902;52.158;11.574;2022-08-03T01:15:36;22.10;99.90
13659;DHT22;6902;52.158;11.574;2022-08-03T01:18:08;22.10;99.90
13659;DHT22;6902;52.158;11.574;2022-08-03T01:20:39;22.00;99.90
13659;DHT22;6902;52.158;11.574;2022-08-03T01:23:38;22.00;99.90
13659;DHT22;6902;52.158;11.574;2022-08-03T01:26:27;21.90;99.90
13659;DHT22;6902;52.158;11.574;2022-08-03T01:29:09;21.90;99.90
13659;DHT22;6902;52.158;11.574;2022-08-03T01:31:44;21.90;99.90
13659;DHT22;6902;52.158;11.574;2022-08-03T01:34:15;21.80;99.90
13659;DHT22;6902;52.158;11.574;2022-08-03T01:36:49;21.80;99.90
13659;DHT22;6902;52.158;11.574;2022-08-03T01:39:17;21.70;99.90
13659;DHT22;6902;52.158;11.574;2022-08-03T01:41:48;21.80;99.90
13659;DHT22;6902;52.158;11.574;2022-08-03T01:44:16;21.70;99.90
13659;DHT22;6902;52.158;11.574;2022-08-03T01:46:46;21.70;99.90
13659;DHT22;6902;52.158;11.574;2022-08-03T01:49:17;21.70;99.90
13659;DHT22;6902;52.158;11.574;2022-08-03T01:51:46;21.80;99.90
13659;DHT22;6902;52.158;11.574;2022-08-03T01:54:14;21.80;99.90
13659;DHT22;6902;52.158;11.574;2022-08-03T01:56:43;21.80;99.90
13659;DHT22;6902;52.158;11.574;2022-08-03T01:59:14;21.80;99.90
13659;DHT22;6902;52.158;11.574;2022-08-03T02:01:42;21.80;99.90
13659;DHT22;6902;52.158;11.574;2022-08-03T02:04:12;21.80;99.90
13659;DHT22;6902;52.158;11.574;2022-08-03T02:06:41;21.80;99.90
13659;DHT22;6902;52.158;11.574;2022-08-03T02:09:08;21.80;99.90
13659;DHT22;6902;52.158;11.574;2022-08-03T02:11:35;21.80;99.90
13659;DHT22;6902;52.158;11.574;2022-08-03T02:14:05;21.80;99.90
13659;DHT22;6902;52.158;11.574;2022-08-03T02:16:33;21.80;99.90
13659;DHT22;6902;52.158;11.574;2022-08-03T02:19:04;21.80;99.90
13659;DHT22;6902;52.158;11.574;2022-08-03T02:21:35;21.80;99.90
13659;DHT22;6902;52.158;11.574;2022-08-03T02:24:03;21.80;99.90
13659;DHT22;6902;52.158;11.574;2022-08-03T02:26:31;21.80;99.90
13659;DHT22;6902;52.158;11.574;2022-08-03T02:29:02;21.80;99.90
13659;DHT22;6902;52.158;11.574;2022-08-03T02:31:33;21.80;99.90
13659;DHT22;6902;52.158;11.574;2022-08-03T02:34:08;21.80;99.90
13659;DHT22;6902;52.158;11.574;2022-08-03T02:36:40;21.70;99.90
13659;DHT22;6902;52.158;11.574;2022-08-03T02:39:10;21.70;99.90
13659;DHT22;6902;52.158;11.574;2022-08-03T02:41:45;21.70;99.90
13659;DHT22;6902;52.158;11.574;2022-08-03T02:44:16;21.60;99.90
13659;DHT22;6902;52.158;11.574;2022-08-03T02:46:45;21.60;99.90
13659;DHT22;6902;52.158;11.574;2022-08-03T02:49:15;21.50;99.90
13659;DHT22;6902;52.158;11.574;2022-08-03T02:51:46;21.50;99.90
13659;DHT22;6902;52.158;11.574;2022-08-03T02:54:16;21.50;99.90
13659;DHT22;6902;52.158;11.574;2022-08-03T02:56:45;21.40;99.90
13659;DHT22;6902;52.158;11.574;2022-08-03T02:59:13;21.30;99.90
13659;DHT22;6902;52.158;11.574;2022-08-03T03:01:41;21.20;99.90
13659;DHT22;6902;52.158;11.574;2022-08-03T03:04:10;21.20;99.90
13659;DHT22;6902;52.158;11.574;2022-08-03T03:06:38;21.20;99.90
13659;DHT22;6902;52.158;11.574;2022-08-03T03:09:07;21.10;99.90
13659;DHT22;6902;52.158;11.574;2022-08-03T03:11:37;21.00;99.90
13659;DHT22;6902;52.158;11.574;2022-08-03T03:14:06;20.90;99.90
13659;DHT22;6902;52.158;11.574;2022-08-03T03:16:34;20.90;99.90
13659;DHT22;6902;52.158;11.574;2022-08-03T03:19:01;20.80;99.90
13659;DHT22;6902;52.158;11.574;2022-08-03T03:21:29;20.80;99.90
13659;DHT22;6902;52.158;11.574;2022-08-03T03:23:58;20.70;99.90
13659;DHT22;6902;52.158;11.574;2022-08-03T03:26:27;20.70;99.90
13659;DHT22;6902;52.158;11.574;2022-08-03T03:28:54;20.70;99.90
13659;DHT22;6902;52.158;11.574;2022-08-03T03:31:21;20.70;99.90
13659;DHT22;6902;52.158;11.574;2022-08-03T03:33:48;20.70;99.90
13659;DHT22;6902;52.158;11.574;2022-08-03T03:36:16;20.70;99.90
13659;DHT22;6902;52.158;11.574;2022-08-03T03:38:44;20.70;99.90
13659;DHT22;6902;52.158;11.574;2022-08-03T03:41:11;20.70;99.90
13659;DHT22;6902;52.158;11.574;2022-08-03T03:43:39;20.70;99.90
13659;DHT22;6902;52.158;11.574;2022-08-03T03:46:07;20.60;99.90
13659;DHT22;6902;52.158;11.574;2022-08-03T03:48:34;20.60;99.90
13659;DHT22;6902;52.158;11.574;2022-08-03T03:51:02;20.60;99.90
13659;DHT22;6902;52.158;11.574;2022-08-03T03:53:29;20.60;99.90
13659;DHT22;6902;52.158;11.574;2022-08-03T03:55:56;20.60;99.90
13659;DHT22;6902;52.158;11.574;2022-08-03T03:58:23;20.60;99.90
13659;DHT22;6902;52.158;11.574;2022-08-03T04:00:52;20.60;99.90
13659;DHT22;6902;52.158;11.574;2022-08-03T04:03:19;20.60;99.90
13659;DHT22;6902;52.158;11.574;2022-08-03T04:05:46;20.60;99.90
13659;DHT22;6902;52.158;11.574;2022-08-03T04:08:31;20.60;99.90
13659;DHT22;6902;52.158;11.574;2022-08-03T04:11:18;20.70;99.90
13659;DHT22;6902;52.158;11.574;2022-08-03T04:13:49;20.80;99.90
13659;DHT22;6902;52.158;11.574;2022-08-03T04:16:21;20.90;99.90
13659;DHT22;6902;52.158;11.574;2022-08-03T04:18:53;20.90;99.90
13659;DHT22;6902;52.158;11.574;2022-08-03T04:21:21;21.00;99.90
13659;DHT22;6902;52.158;11.574;2022-08-03T04:23:52;21.20;99.90
13659;DHT22;6902;52.158;11.574;2022-08-03T04:26:21;21.30;99.90
13659;DHT22;6902;52.158;11.574;2022-08-03T04:28:51;21.40;99.90
13659;DHT22;6902;52.158;11.574;2022-08-03T04:31:21;21.50;99.90
13659;DHT22;6902;52.158;11.574;2022-08-03T04:33:50;21.60;99.90
13659;DHT22;6902;52.158;11.574;2022-08-03T04:36:21;21.70;99.90
13659;DHT22;6902;52.158;11.574;2022-08-03T04:39:01;21.80;99.90
13659;DHT22;6902;52.158;11.574;2022-08-03T04:41:30;21.90;99.90
13659;DHT22;6902;52.158;11.574;2022-08-03T04:43:58;22.00;99.90
13659;DHT22;6902;52.158;11.574;2022-08-03T04:46:31;22.10;99.90
13659;DHT22;6902;52.158;11.574;2022-08-03T04:49:01;22.20;99.90
13659;DHT22;6902;52.158;11.574;2022-08-03T04:51:29;22.30;99.90
13659;DHT22;6902;52.158;11.574;2022-08-03T04:53:59;22.40;99.90
13659;DHT22;6902;52.158;11.574;2022-08-03T04:56:26;22.50;99.90
13659;DHT22;6902;52.158;11.574;2022-08-03T04:58:54;22.60;99.90
13659;DHT22;6902;52.158;11.574;2022-08-03T05:01:21;22.70;99.90
13659;DHT22;6902;52.158;11.574;2022-08-03T05:03:49;22.80;99.90
13659;DHT22;6902;52.158;11.574;2022-08-03T05:06:16;22.90;99.90
13659;DHT22;6902;52.158;11.574;2022-08-03T05:08:43;23.00;99.90
13659;DHT22;6902;52.158;11.574;2022-08-03T05:11:10;23.10;99.90
13659;DHT22;6902;52.158;11.574;2022-08-03T05:13:37;23.20;99.90
13659;DHT22;6902;52.158;11.574;2022-08-03T05:16:04;23.30;99.90
13659;DHT22;6902;52.158;11.574;2022-08-03T05:18:31;23.40;99.90
13659;DHT22;6902;52.158;11.574;2022-08-03T05:20:59;23.50;99.90
13659;DHT22;6902;52.158;11.574;2022-08-03T05:23:26;23.60;99.90
13659;DHT22;6902;52.158;11.574;2022-08-03T05:25:53;23.70;99.90
13659;DHT22;6902;52.158;11.574;2022-08-03T05:28:20;23.90;99.90
13659;DHT22;6902;52.158;11.574;2022-08-03T05:30:47;24.00;99.90
13659;DHT22;6902;52.158;11.574;2022-08-03T05:33:15;24.20;99.90
13659;DHT22;6902;52.158;11.574;2022-08-03T05:35:41;24.30;99.90
13659;DHT22;6902;52.158;11.574;2022-08-03T05:38:10;24.50;99.90
13659;DHT22;6902;52.158;11.574;2022-08-03T05:40:37;24.60;99.90
13659;DHT22;6902;52.158;11.574;2022-08-03T05:43:04;24.70;99.90
13659;DHT22;6902;52.158;11.574;2022-08-03T05:45:31;24.80;99.90
13659;DHT22;6902;52.158;11.574;2022-08-03T05:47:58;24.90;99.90
13659;DHT22;6902;52.158;11.574;2022-08-03T05:50:25;25.10;99.90
13659;DHT22;6902;52.158;11.574;2022-08-03T05:52:54;25.20;99.90
13659;DHT22;6902;52.158;11.574;2022-08-03T05:55:23;25.30;99.90
13659;DHT22;6902;52.158;11.574;2022-08-03T05:57:51;25.50;99.90
13659;DHT22;6902;52.158;11.574;2022-08-03T06:00:18;25.60;99.90
13659;DHT22;6902;52.158;11.574;2022-08-03T06:02:45;25.80;99.90
13659;DHT22;6902;52.158;11.574;2022-08-03T06:05:12;25.90;99.90
13659;DHT22;6902;52.158;11.574;2022-08-03T06:07:39;26.00;99.90
13659;DHT22;6902;52.158;11.574;2022-08-03T06:10:07;26.10;99.90
13659;DHT22;6902;52.158;11.574;2022-08-03T06:12:36;26.30;99.90
13659;DHT22;6902;52.158;11.574;2022-08-03T06:15:06;26.50;99.90
13659;DHT22;6902;52.158;11.574;2022-08-03T06:17:33;26.70;99.90
13659;DHT22;6902;52.158;11.574;2022-08-03T06:20:00;26.80;99.90
13659;DHT22;6902;52.158;11.574;2022-08-03T06:22:27;26.80;99.90
13659;DHT22;6902;52.158;11.574;2022-08-03T06:24:55;26.90;99.90
13659;DHT22;6902;52.158;11.574;2022-08-03T06:37:18;27.80;99.90
13659;DHT22;6902;52.158;11.574;2022-08-03T06:39:45;27.90;99.90
13659;DHT22;6902;52.158;11.574;2022-08-03T06:42:13;28.10;99.90
13659;DHT22;6902;52.158;11.574;2022-08-03T06:44:40;28.30;99.90
13659;DHT22;6902;52.158;11.574;2022-08-03T06:47:08;28.70;99.90
13659;DHT22;6902;52.158;11.574;2022-08-03T06:49:35;28.70;99.90
13659;DHT22;6902;52.158;11.574;2022-08-03T06:52:03;28.90;99.90
13659;DHT22;6902;52.158;11.574;2022-08-03T06:54:30;29.10;99.90
13659;DHT22;6902;52.158;11.574;2022-08-03T06:56:57;29.20;99.90
13659;DHT22;6902;52.158;11.574;2022-08-03T06:59:24;29.40;99.90
13659;DHT22;6902;52.158;11.574;2022-08-03T07:04:20;29.50;99.90
13659;DHT22;6902;52.158;11.574;2022-08-03T07:06:47;29.60;99.90
13659;DHT22;6902;52.158;11.574;2022-08-03T07:21:34;30.50;99.90
13659;DHT22;6902;52.158;11.574;2022-08-03T07:24:02;30.60;99.90
13659;DHT22;6902;52.158;11.574;2022-08-03T07:26:29;30.70;99.90
13659;DHT22;6902;52.158;11.574;2022-08-03T07:28:56;30.80;99.90
13659;DHT22;6902;52.158;11.574;2022-08-03T07:31:25;31.00;99.90
13659;DHT22;6902;52.158;11.574;2022-08-03T07:33:52;31.10;99.90
13659;DHT22;6902;52.158;11.574;2022-08-03T07:36:19;31.10;99.90
13659;DHT22;6902;52.158;11.574;2022-08-03T07:38:48;31.10;99.90
13659;DHT22;6902;52.158;11.574;2022-08-03T07:41:15;31.20;99.90
13659;DHT22;6902;52.158;11.574;2022-08-03T07:43:42;31.30;99.90
13659;DHT22;6902;52.158;11.574;2022-08-03T07:46:09;31.40;99.90
13659;DHT22;6902;52.158;11.574;2022-08-03T07:56:00;32.10;99.90
13659;DHT22;6902;52.158;11.574;2022-08-03T07:58:27;32.10;99.90
13659;DHT22;6902;52.158;11.574;2022-08-03T08:00:54;32.30;99.90
13659;DHT22;6902;52.158;11.574;2022-08-03T08:03:21;32.50;99.90
13659;DHT22;6902;52.158;11.574;2022-08-03T08:05:49;32.50;99.90
13659;DHT22;6902;52.158;11.574;2022-08-03T08:08:16;32.60;99.90
13659;DHT22;6902;52.158;11.574;2022-08-03T08:10:43;32.60;99.90
13659;DHT22;6902;52.158;11.574;2022-08-03T08:13:11;32.70;99.90
13659;DHT22;6902;52.158;11.574;2022-08-03T11:13:20;35.40;99.90
13659;DHT22;6902;52.158;11.574;2022-08-03T11:15:51;35.40;99.90
13659;DHT22;6902;52.158;11.574;2022-08-03T11:18:18;35.50;99.90
13659;DHT22;6902;52.158;11.574;2022-08-03T11:20:47;35.60;99.90
13659;DHT22;6902;52.158;11.574;2022-08-03T11:23:17;35.70;99.90
13659;DHT22;6902;52.158;11.574;2022-08-03T11:26:10;35.60;99.90
13659;DHT22;6902;52.158;11.574;2022-08-03T11:28:39;35.70;99.90
13659;DHT22;6902;52.158;11.574;2022-08-03T11:34:15;35.30;99.90
13659;DHT22;6902;52.158;11.574;2022-08-03T11:37:18;35.60;99.80
13659;DHT22;6902;52.158;11.574;2022-08-03T11:39:48;35.60;99.90
13659;DHT22;6902;52.158;11.574;2022-08-03T11:42:38;35.60;99.90
13659;DHT22;6902;52.158;11.574;2022-08-03T11:45:08;35.60;99.90
13659;DHT22;6902;52.158;11.574;2022-08-03T11:47:37;35.70;99.90
13659;DHT22;6902;52.158;11.574;2022-08-03T11:50:05;35.70;99.90
13659;DHT22;6902;52.158;11.574;2022-08-03T11:52:42;35.70;99.90
13659;DHT22;6902;52.158;11.574;2022-08-03T11:55:12;35.70;99.50
13659;DHT22;6902;52.158;11.574;2022-08-03T11:57:39;35.70;99.60
13659;DHT22;6902;52.158;11.574;2022-08-03T12:00:22;35.70;99.90
13659;DHT22;6902;52.158;11.574;2022-08-03T12:03:01;35.70;99.90
13659;DHT22;6902;52.158;11.574;2022-08-03T12:05:37;35.70;99.90
13659;DHT22;6902;52.158;11.574;2022-08-03T12:08:04;35.70;99.90
13659;DHT22;6902;52.158;11.574;2022-08-03T12:10:32;35.70;99.90
13659;DHT22;6902;52.158;11.574;2022-08-03T12:13:00;35.80;99.80
13659;DHT22;6902;52.158;11.574;2022-08-03T12:15:30;35.70;99.90
13659;DHT22;6902;52.158;11.574;2022-08-03T12:17:59;35.60;99.90
13659;DHT22;6902;52.158;11.574;2022-08-03T12:20:28;35.50;99.90
13659;DHT22;6902;52.158;11.574;2022-08-03T12:23:01;35.30;99.90
13659;DHT22;6902;52.158;11.574;2022-08-03T12:25:29;35.20;99.90
13659;DHT22;6902;52.158;11.574;2022-08-03T12:28:06;35.30;99.90
13659;DHT22;6902;52.158;11.574;2022-08-03T12:30:36;35.30;99.90
13659;DHT22;6902;52.158;11.574;2022-08-03T12:33:19;35.30;99.90
13659;DHT22;6902;52.158;11.574;2022-08-03T12:35:49;35.30;99.50
13659;DHT22;6902;52.158;11.574;2022-08-03T12:38:20;35.20;99.90
13659;DHT22;6902;52.158;11.574;2022-08-03T12:40:59;35.20;99.90
13659;DHT22;6902;52.158;11.574;2022-08-03T12:43:27;35.20;99.90
13659;DHT22;6902;52.158;11.574;2022-08-03T12:46:09;35.10;99.90
13659;DHT22;6902;52.158;11.574;2022-08-03T12:49:02;35.00;99.90
13659;DHT22;6902;52.158;11.574;2022-08-03T12:51:32;34.80;99.90
13659;DHT22;6902;52.158;11.574;2022-08-03T12:53:59;34.60;99.80
13659;DHT22;6902;52.158;11.574;2022-08-03T12:56:27;34.60;99.90
13659;DHT22;6902;52.158;11.574;2022-08-03T12:58:54;34.60;99.90
13659;DHT22;6902;52.158;11.574;2022-08-03T13:01:22;34.50;99.50
13659;DHT22;6902;52.158;11.574;2022-08-03T13:03:52;34.40;99.40
13659;DHT22;6902;52.158;11.574;2022-08-03T13:06:21;34.40;99.40
13659;DHT22;6902;52.158;11.574;2022-08-03T13:08:48;34.30;99.60
13659;DHT22;6902;52.158;11.574;2022-08-03T13:11:18;34.30;99.50
13659;DHT22;6902;52.158;11.574;2022-08-03T13:13:44;34.30;99.90
13659;DHT22;6902;52.158;11.574;2022-08-03T13:16:12;34.40;99.90
13659;DHT22;6902;52.158;11.574;2022-08-03T13:18:40;34.40;99.90
13659;DHT22;6902;52.158;11.574;2022-08-03T13:21:07;34.60;99.90
13659;DHT22;6902;52.158;11.574;2022-08-03T13:23:34;34.60;99.90
13659;DHT22;6902;52.158;11.574;2022-08-03T13:26:01;34.70;99.90
13659;DHT22;6902;52.158;11.574;2022-08-03T13:28:28;34.70;99.60
13659;DHT22;6902;52.158;11.574;2022-08-03T13:30:55;34.80;99.90
13659;DHT22;6902;52.158;11.574;2022-08-03T13:33:22;34.80;99.90
13659;DHT22;6902;52.158;11.574;2022-08-03T13:35:51;34.80;99.90
13659;DHT22;6902;52.158;11.574;2022-08-03T13:38:17;34.80;99.90
13659;DHT22;6902;52.158;11.574;2022-08-03T13:40:44;34.70;99.90
13659;DHT22;6902;52.158;11.574;2022-08-03T13:43:11;34.60;99.90
13659;DHT22;6902;52.158;11.574;2022-08-03T13:45:38;34.60;99.90
13659;DHT22;6902;52.158;11.574;2022-08-03T13:48:05;34.50;99.40
13659;DHT22;6902;52.158;11.574;2022-08-03T13:50:32;34.40;99.80
13659;DHT22;6902;52.158;11.574;2022-08-03T13:53:01;34.40;99.80
13659;DHT22;6902;52.158;11.574;2022-08-03T13:55:28;34.40;99.70
13659;DHT22;6902;52.158;11.574;2022-08-03T13:57:55;34.30;98.90
13659;DHT22;6902;52.158;11.574;2022-08-03T14:00:22;34.20;99.40
13659;DHT22;6902;52.158;11.574;2022-08-03T14:02:50;34.20;99.90
13659;DHT22;6902;52.158;11.574;2022-08-03T14:05:17;34.20;99.90
13659;DHT22;6902;52.158;11.574;2022-08-03T14:07:44;34.20;99.90
13659;DHT22;6902;52.158;11.574;2022-08-03T14:10:14;34.20;99.40
13659;DHT22;6902;52.158;11.574;2022-08-03T14:12:42;34.20;99.90
13659;DHT22;6902;52.158;11.574;2022-08-03T14:15:09;34.20;99.60
13659;DHT22;6902;52.158;11.574;2022-08-03T14:17:38;34.30;99.30
13659;DHT22;6902;52.158;11.574;2022-08-03T14:20:06;34.30;99.40
13659;DHT22;6902;52.158;11.574;2022-08-03T14:22:33;34.30;99.90
13659;DHT22;6902;52.158;11.574;2022-08-03T14:25:00;34.30;99.90
13659;DHT22;6902;52.158;11.574;2022-08-03T14:27:28;34.30;99.90
13659;DHT22;6902;52.158;11.574;2022-08-03T14:29:55;34.20;99.40
13659;DHT22;6902;52.158;11.574;2022-08-03T14:32:25;34.20;99.60
13659;DHT22;6902;52.158;11.574;2022-08-03T14:34:52;34.10;99.90
13659;DHT22;6902;52.158;11.574;2022-08-03T14:37:19;34.10;99.20
13659;DHT22;6902;52.158;11.574;2022-08-03T14:39:46;34.10;99.50
13659;DHT22;6902;52.158;11.574;2022-08-03T14:42:13;34.10;99.40
13659;DHT22;6902;52.158;11.574;2022-08-03T14:44:42;34.10;99.40
13659;DHT22;6902;52.158;11.574;2022-08-03T14:47:09;34.10;99.30
13659;DHT22;6902;52.158;11.574;2022-08-03T14:49:36;34.20;99.20
13659;DHT22;6902;52.158;11.574;2022-08-03T14:52:04;34.20;99.70
13659;DHT22;6902;52.158;11.574;2022-08-03T14:54:31;34.30;99.00
13659;DHT22;6902;52.158;11.574;2022-08-03T14:56:58;34.30;99.90
13659;DHT22;6902;52.158;11.574;2022-08-03T14:59:25;34.30;99.70
13659;DHT22;6902;52.158;11.574;2022-08-03T15:01:54;34.40;99.20
13659;DHT22;6902;52.158;11.574;2022-08-03T15:04:21;34.40;99.60
13659;DHT22;6902;52.158;11.574;2022-08-03T15:06:48;34.50;98.50
13659;DHT22;6902;52.158;11.574;2022-08-03T15:09:15;34.50;99.40
13659;DHT22;6902;52.158;11.574;2022-08-03T15:11:42;34.60;99.20
13659;DHT22;6902;52.158;11.574;2022-08-03T15:14:09;34.60;99.00
13659;DHT22;6902;52.158;11.574;2022-08-03T15:16:36;34.70;99.00
13659;DHT22;6902;52.158;11.574;2022-08-03T15:19:05;34.70;99.40
13659;DHT22;6902;52.158;11.574;2022-08-03T15:21:31;34.70;99.20
13659;DHT22;6902;52.158;11.574;2022-08-03T15:23:58;34.70;98.50
13659;DHT22;6902;52.158;11.574;2022-08-03T15:26:25;34.70;99.00
13659;DHT22;6902;52.158;11.574;2022-08-03T15:28:52;34.60;99.50
13659;DHT22;6902;52.158;11.574;2022-08-03T15:31:20;34.60;98.50
13659;DHT22;6902;52.158;11.574;2022-08-03T15:33:47;34.60;99.40
13659;DHT22;6902;52.158;11.574;2022-08-03T15:36:17;34.60;99.30
13659;DHT22;6902;52.158;11.574;2022-08-03T15:38:45;34.60;98.70
13659;DHT22;6902;52.158;11.574;2022-08-03T15:41:12;34.60;99.10
13659;DHT22;6902;52.158;11.574;2022-08-03T15:43:40;34.60;98.40
13659;DHT22;6902;52.158;11.574;2022-08-03T15:46:07;34.50;98.30
13659;DHT22;6902;52.158;11.574;2022-08-03T15:48:34;34.40;98.50
13659;DHT22;6902;52.158;11.574;2022-08-03T15:51:01;34.40;98.40
13659;DHT22;6902;52.158;11.574;2022-08-03T15:53:29;34.40;98.60
13659;DHT22;6902;52.158;11.574;2022-08-03T15:55:56;34.30;98.40
13659;DHT22;6902;52.158;11.574;2022-08-03T15:58:23;34.30;99.10
13659;DHT22;6902;52.158;11.574;2022-08-03T16:00:55;34.30;98.70
13659;DHT22;6902;52.158;11.574;2022-08-03T16:03:22;34.30;98.00
13659;DHT22;6902;52.158;11.574;2022-08-03T16:05:49;34.20;98.60
13659;DHT22;6902;52.158;11.574;2022-08-03T16:08:16;34.20;98.10
13659;DHT22;6902;52.158;11.574;2022-08-03T16:10:45;34.30;98.90
13659;DHT22;6902;52.158;11.574;2022-08-03T16:13:12;34.20;98.40
13659;DHT22;6902;52.158;11.574;2022-08-03T16:15:39;34.30;99.10
13659;DHT22;6902;52.158;11.574;2022-08-03T16:18:06;34.30;98.80
13659;DHT22;6902;52.158;11.574;2022-08-03T16:20:33;34.20;98.30
13659;DHT22;6902;52.158;11.574;2022-08-03T16:23:01;34.20;97.60
13659;DHT22;6902;52.158;11.574;2022-08-03T16:25:29;34.20;97.80
13659;DHT22;6902;52.158;11.574;2022-08-03T16:28:00;34.10;98.20
13659;DHT22;6902;52.158;11.574;2022-08-03T16:30:27;34.10;99.40
13659;DHT22;6902;52.158;11.574;2022-08-03T16:32:54;34.10;98.00
13659;DHT22;6902;52.158;11.574;2022-08-03T16:35:21;34.10;98.20
13659;DHT22;6902;52.158;11.574;2022-08-03T16:37:48;34.10;98.60
13659;DHT22;6902;52.158;11.574;2022-08-03T16:40:15;34.10;98.50
13659;DHT22;6902;52.158;11.574;2022-08-03T16:42:42;34.10;98.00
13659;DHT22;6902;52.158;11.574;2022-08-03T16:45:11;34.00;98.10
13659;DHT22;6902;52.158;11.574;2022-08-03T16:47:38;34.00;98.30
13659;DHT22;6902;52.158;11.574;2022-08-03T16:50:06;33.90;98.10
13659;DHT22;6902;52.158;11.574;2022-08-03T16:52:33;33.90;98.50
13659;DHT22;6902;52.158;11.574;2022-08-03T16:55:01;33.90;98.40
13659;DHT22;6902;52.158;11.574;2022-08-03T16:57:28;33.90;97.90
13659;DHT22;6902;52.158;11.574;2022-08-03T16:59:56;33.90;97.90
13659;DHT22;6902;52.158;11.574;2022-08-03T17:02:26;33.90;97.90
13659;DHT22;6902;52.158;11.574;2022-08-03T17:04:54;33.90;97.80
13659;DHT22;6902;52.158;11.574;2022-08-03T17:07:25;33.90;98.10
13659;DHT22;6902;52.158;11.574;2022-08-03T17:09:52;33.90;97.70
13659;DHT22;6902;52.158;11.574;2022-08-03T17:12:19;33.80;97.30
13659;DHT22;6902;52.158;11.574;2022-08-03T17:14:46;33.80;98.10
13659;DHT22;6902;52.158;11.574;2022-08-03T17:17:15;33.80;97.60
13659;DHT22;6902;52.158;11.574;2022-08-03T17:19:44;33.80;97.50
13659;DHT22;6902;52.158;11.574;2022-08-03T17:22:13;33.70;97.70
13659;DHT22;6902;52.158;11.574;2022-08-03T17:24:44;33.60;97.80
13659;DHT22;6902;52.158;11.574;2022-08-03T17:27:15;33.60;97.30
13659;DHT22;6902;52.158;11.574;2022-08-03T17:29:45;33.50;97.80
13659;DHT22;6902;52.158;11.574;2022-08-03T17:32:14;33.50;97.70
13659;DHT22;6902;52.158;11.574;2022-08-03T17:34:44;33.50;98.00
13659;DHT22;6902;52.158;11.574;2022-08-03T17:37:13;33.40;97.80
13659;DHT22;6902;52.158;11.574;2022-08-03T17:39:41;33.30;97.50
13659;DHT22;6902;52.158;11.574;2022-08-03T17:42:09;33.30;97.80
13659;DHT22;6902;52.158;11.574;2022-08-03T17:44:37;33.20;97.90
13659;DHT22;6902;52.158;11.574;2022-08-03T17:47:04;33.20;97.60
13659;DHT22;6902;52.158;11.574;2022-08-03T17:49:32;33.10;98.40
13659;DHT22;6902;52.158;11.574;2022-08-03T17:52:03;33.00;99.20
13659;DHT22;6902;52.158;11.574;2022-08-03T17:54:37;33.00;99.90
13659;DHT22;6902;52.158;11.574;2022-08-03T17:57:08;32.80;98.60
13659;DHT22;6902;52.158;11.574;2022-08-03T17:59:40;32.70;99.20
13659;DHT22;6902;52.158;11.574;2022-08-03T18:02:20;32.60;99.90
13659;DHT22;6902;52.158;11.574;2022-08-03T18:05:07;32.50;99.90
13659;DHT22;6902;52.158;11.574;2022-08-03T18:07:38;32.40;99.90
13659;DHT22;6902;52.158;11.574;2022-08-03T18:10:06;32.30;99.90
13659;DHT22;6902;52.158;11.574;2022-08-03T18:12:43;32.20;99.90
13659;DHT22;6902;52.158;11.574;2022-08-03T18:15:13;32.10;99.90
13659;DHT22;6902;52.158;11.574;2022-08-03T18:17:42;32.00;99.90
13659;DHT22;6902;52.158;11.574;2022-08-03T18:20:12;32.00;99.90
13659;DHT22;6902;52.158;11.574;2022-08-03T18:22:41;31.90;99.90
13659;DHT22;6902;52.158;11.574;2022-08-03T18:25:09;31.80;99.90
13659;DHT22;6902;52.158;11.574;2022-08-03T18:27:37;31.70;99.90
13659;DHT22;6902;52.158;11.574;2022-08-03T18:30:06;31.60;99.90
13659;DHT22;6902;52.158;11.574;2022-08-03T18:32:33;31.60;99.90
13659;DHT22;6902;52.158;11.574;2022-08-03T18:35:02;31.50;99.90
13659;DHT22;6902;52.158;11.574;2022-08-03T18:37:29;31.40;99.90
13659;DHT22;6902;52.158;11.574;2022-08-03T18:39:59;31.40;99.90
13659;DHT22;6902;52.158;11.574;2022-08-03T18:42:27;31.30;99.90
13659;DHT22;6902;52.158;11.574;2022-08-03T18:44:54;31.20;99.90
13659;DHT22;6902;52.158;11.574;2022-08-03T18:47:45;31.10;99.90
13659;DHT22;6902;52.158;11.574;2022-08-03T18:50:17;31.00;99.90
13659;DHT22;6902;52.158;11.574;2022-08-03T18:52:48;30.90;99.90
13659;DHT22;6902;52.158;11.574;2022-08-03T18:55:22;30.80;99.90
13659;DHT22;6902;52.158;11.574;2022-08-03T18:58:04;30.70;99.90
13659;DHT22;6902;52.158;11.574;2022-08-03T19:00:40;30.70;99.90
13659;DHT22;6902;52.158;11.574;2022-08-03T19:03:08;30.70;99.90
13659;DHT22;6902;52.158;11.574;2022-08-03T19:05:41;30.60;99.90
13659;DHT22;6902;52.158;11.574;2022-08-03T19:08:14;30.60;99.90
13659;DHT22;6902;52.158;11.574;2022-08-03T19:10:46;30.50;99.90
13659;DHT22;6902;52.158;11.574;2022-08-03T19:13:22;30.50;99.90
13659;DHT22;6902;52.158;11.574;2022-08-03T19:15:50;30.30;99.90